SGCO/CIO METAR and TAF weather

Enter ICAO airport designator
Station Type Date Time Source
SGCO METAR 2019/04/04 09:00 UTC NOAA

SGCO 040900Z 05004KT 9999 OVC013 25/24 Q1004


Station Type Date Time Source
SGCO Decoded METAR 2019/04/04 09:00 UTC NOAA

Concepcion, Paraguay (SGCO) 23-25S 057-18W 74M
Apr 04, 2019 - 05:00 AM EDT / 2019.04.04 0900 UTC
Wind: from the NE (050 degrees) at 5 MPH (4 KT):0
Visibility: greater than 7 mile(s):0
Sky conditions: overcast
Temperature: 77 F (25 C)
Dew Point: 75 F (24 C)
Relative Humidity: 94%
Pressure (altimeter): 29.65 in. Hg (1004 hPa)
ob: SGCO 040900Z 05004KT 9999 OVC013 25/24 Q1004
cycle: 9

Station Type Date Time Source
SGCO TAF 2019/04/18 06:00 UTC NOAA

TAF SGCO 180500Z 1806/1906 00000KT CAVOK TX34/1819Z TN22/1809Z
BECMG 1815/1818 02005KT 9999 SCT033

Example: see airport list